Hampstead, NC (28443)

5:36 PM EST on February 12, 2016 (GMT -0500)
Castle Bay | | Change Station
CLOSE
Current Station
Personal Weather Station
Location: Hampstead, NC
Elevation: 33 ft
Nearby Weather Stations
Active Advisory: Flood Warning

Elev 33 ft 34.40 °N, 77.70 °W | Updated 4 seconds ago

Overcast
Overcast
33.9 °F
Feels Like 30 °F
N
4.0
Wind Variable Wind from NW
Gusts 8.0 mph

Today
High -- | Low -- °F
--% Chance of Precip.
Yesterday
High -- | Low -- °F
Precip. -- in
Pressure 30.04 in
Visibility 10.0 miles
Clouds Overcast 1000 ft
Windchill 30 °F
Dew Point 32 °F
Humidity 92%
Rainfall 0.05 in
Snow Depth Not available.
6:59 AM 5:50 PM
Waxing Crescent, 24% visible
SPECI KILM 122234Z 33007KT 10SM OVC010 02/M01 A3004 RMK AO2 T00171011
Pressure 30.04 in
Visibility 10.0 miles
Clouds Overcast 1000 ft
Windchill 30 °F
Dew Point 32 °F
Humidity 92%
Rainfall 0.05 in
Snow Depth Not available.
6:59 AM 5:50 PM
Waxing Crescent, 24% visible
SPECI KILM 122234Z 33007KT 10SM OVC010 02/M01 A3004 RMK AO2 T00171011

10-Day Weather Forecast

Almanac

Astronomy

Feb. 12, 2016 Rise Set
Actual Time
Civil Twilight
Nautical Twilight
Astronomical Twilight
Moon
Length of Visible Light
Length of Day
Tomorrow will be .
, % of the Moon is Illuminated

Today's Extremes

State Highs State Lows

Community

WunderPhotos

Upload Photos

1,892,422 photos uploaded!

WunderBlog® & News

Nearby

Air Quality

  Air Quality AQ Index Pollutant
Not available.

Snow Depth

Station Depth Elevation

Earthquake Activity

City Distance Mag. Time & Date
Minimum magnitude displayed is 2.5.

Coastal Water Temperatures

Place Temperature

Stations

Nearby Weather Stations

Station Location Temp. Windchill Dew Point Humidity Wind Precip. Elev Updated Type
                   

Watches & Warnings

Flood Warning
Issued: 10:06 AM EST Feb. 12, 2016 – National Weather Service

The Flood Warning continues for
the Northeast Cape fear near Burgaw.
* Until further notice.
* At 9:30 am Friday the stage was 13.52 feet.
* Flood stage is 10.0 feet.
* Moderate flooding is occurring and moderate flooding is forecast.
* Forecast... the river will continue to fall to a stage of 13.1 feet by tomorrow
morning.
* Impact... at 13.5 feet... floodwaters begin to affect Highway 53, Highway 210,
White Stocking Road, Shaw Highway and Holly shelter Road. Roads are passable
but have water on them.


Lat... Lon 3472 7798 3472 7786 3460 7776 3445 7779
          3444 7788 3457 7788